createdAt,value
2022-10-17T00:00:33.732Z,46.69
2022-10-17T00:01:33.719Z,46.77
2022-10-17T00:02:33.733Z,46.8
2022-10-17T00:03:33.734Z,46.85
2022-10-17T00:04:33.733Z,46.79
2022-10-17T00:05:33.721Z,46.68
2022-10-17T00:06:33.733Z,46.45
2022-10-17T00:07:33.733Z,46.6
2022-10-17T00:08:33.721Z,46.66
2022-10-17T00:09:33.721Z,46.59
2022-10-17T00:10:33.735Z,46.58
2022-10-17T00:11:33.734Z,46.53
2022-10-17T00:12:33.722Z,46.61
2022-10-17T00:13:33.760Z,46.75
2022-10-17T00:14:33.736Z,46.68
2022-10-17T00:15:33.735Z,46.52
2022-10-17T00:16:33.723Z,46.73
2022-10-17T00:17:33.737Z,46.83
2022-10-17T00:18:33.736Z,46.7
2022-10-17T00:19:33.738Z,46.72
2022-10-17T00:20:33.724Z,46.87
2022-10-17T00:21:33.738Z,46.76
2022-10-17T00:22:33.739Z,47.02
2022-10-17T00:23:33.738Z,46.94
2022-10-17T00:24:33.726Z,46.9
2022-10-17T00:25:33.740Z,46.72
2022-10-17T00:26:33.741Z,46.86
2022-10-17T00:27:33.726Z,46.82
2022-10-17T00:28:33.727Z,46.76
2022-10-17T00:29:33.741Z,46.81
2022-10-17T00:30:33.741Z,46.61
2022-10-17T00:31:33.728Z,46.64
2022-10-17T00:32:33.742Z,46.65
2022-10-17T00:33:33.742Z,46.36
2022-10-17T00:34:33.741Z,46.76
2022-10-17T00:35:33.729Z,46.67
2022-10-17T00:36:33.743Z,46.59
2022-10-17T00:37:33.745Z,46.82
2022-10-17T00:38:33.743Z,46.59
2022-10-17T00:39:33.730Z,46.62
2022-10-17T00:40:33.743Z,46.51
2022-10-17T00:41:33.743Z,46.39
2022-10-17T00:42:33.745Z,46.66
2022-10-17T00:43:33.731Z,46.57
2022-10-17T00:44:33.745Z,46.67
2022-10-17T00:45:33.746Z,46.64
2022-10-17T00:46:33.732Z,46.58
2022-10-17T00:47:33.732Z,46.62
2022-10-17T00:48:33.745Z,46.8
2022-10-17T00:49:33.786Z,46.42
2022-10-17T00:50:33.733Z,46.7
2022-10-17T00:51:43.006Z,46.66
2022-10-17T00:52:33.748Z,46.54
2022-10-17T00:53:33.748Z,46.59
2022-10-17T00:54:33.734Z,46.45
2022-10-17T00:55:33.749Z,46.44
2022-10-17T00:56:33.801Z,46.17
2022-10-17T00:57:33.748Z,46.26
2022-10-17T00:58:33.737Z,46.24
2022-10-17T00:59:33.750Z,46.2
2022-10-17T01:00:33.749Z,46.1
2022-10-17T01:01:33.750Z,46.15
2022-10-17T01:02:33.737Z,46.19
2022-10-17T01:03:33.751Z,46.26
2022-10-17T01:04:33.751Z,46.11
2022-10-17T01:05:33.738Z,46.25
2022-10-17T01:06:33.738Z,46.26
2022-10-17T01:07:33.752Z,46.33
2022-10-17T01:08:33.752Z,46.28
2022-10-17T01:09:33.739Z,46.35
2022-10-17T01:10:33.753Z,46.47
2022-10-17T01:11:33.753Z,46.61
2022-10-17T01:12:33.753Z,46.51
2022-10-17T01:13:33.740Z,46.53
2022-10-17T01:14:33.754Z,46.43
2022-10-17T01:15:33.757Z,46.59
2022-10-17T01:16:33.754Z,46.46
2022-10-17T01:17:33.742Z,46.4
2022-10-17T01:18:33.755Z,46.35
2022-10-17T01:19:33.756Z,46.29
2022-10-17T01:20:33.756Z,46.33
2022-10-17T01:21:33.743Z,46.25
2022-10-17T01:22:33.757Z,46.38
2022-10-17T01:23:33.757Z,46.33
2022-10-17T01:24:33.743Z,46.36
2022-10-17T01:25:33.744Z,46.4
2022-10-17T01:26:33.757Z,46.59
2022-10-17T01:27:33.758Z,46.43
2022-10-17T01:28:33.745Z,46.28
2022-10-17T01:29:33.759Z,46.22
2022-10-17T01:30:33.759Z,46.3
2022-10-17T01:31:33.758Z,46.22
2022-10-17T01:32:33.746Z,46.17
2022-10-17T01:33:33.760Z,46.2
2022-10-17T01:34:33.761Z,46.19
2022-10-17T01:35:33.759Z,46.17
2022-10-17T01:36:33.747Z,46.12
2022-10-17T01:37:33.761Z,46.22
2022-10-17T01:38:33.760Z,46.17
2022-10-17T01:39:33.748Z,46.09
2022-10-17T01:40:33.748Z,46.11
2022-10-17T01:41:33.762Z,46.08
2022-10-17T01:42:33.762Z,46.11
2022-10-17T01:43:33.749Z,46.35
2022-10-17T01:44:33.750Z,46.45
2022-10-17T01:45:33.763Z,46.52
2022-10-17T01:46:33.763Z,46.61
2022-10-17T01:47:33.750Z,46.58
2022-10-17T01:48:33.764Z,46.65
2022-10-17T01:49:33.764Z,46.43
2022-10-17T01:50:33.764Z,46.66
2022-10-17T01:51:33.751Z,46.71
2022-10-17T01:52:33.765Z,46.72
2022-10-17T01:53:33.765Z,46.72
2022-10-17T01:54:33.766Z,46.8
2022-10-17T01:55:33.753Z,46.68
2022-10-17T01:56:33.767Z,46.59
2022-10-17T01:57:33.767Z,46.39
2022-10-17T01:58:33.753Z,46.41
2022-10-17T01:59:33.755Z,46.33
2022-10-17T02:00:33.768Z,46.59
2022-10-17T02:01:33.768Z,46.24
2022-10-17T02:02:33.754Z,46.21
2022-10-17T02:03:33.810Z,46.25
2022-10-17T02:04:33.769Z,45.97
2022-10-17T02:05:33.768Z,46.49
2022-10-17T02:06:33.756Z,46.56
2022-10-17T02:07:33.770Z,46.74
2022-10-17T02:08:33.770Z,46.67
2022-10-17T02:09:33.770Z,46.75
2022-10-17T02:10:33.757Z,46.76
2022-10-17T02:11:33.771Z,46.86
2022-10-17T02:12:33.771Z,46.85
2022-10-17T02:13:33.771Z,46.67
2022-10-17T02:14:33.758Z,46.56
2022-10-17T02:15:33.820Z,46.6
2022-10-17T02:16:33.772Z,46.43
2022-10-17T02:17:33.759Z,46.34
2022-10-17T02:18:33.760Z,46.28
2022-10-17T02:19:33.773Z,46.48
2022-10-17T02:20:33.773Z,46.32
2022-10-17T02:21:33.760Z,46.21
2022-10-17T02:22:33.774Z,46.37
2022-10-17T02:23:33.774Z,46.5
2022-10-17T02:24:33.773Z,46.34
2022-10-17T02:25:33.761Z,46.29
2022-10-17T02:26:33.775Z,46.22
2022-10-17T02:27:33.827Z,46.19
2022-10-17T02:28:33.775Z,45.96
2022-10-17T02:29:33.763Z,46.05
2022-10-17T02:30:33.776Z,46.15
2022-10-17T02:31:43.035Z,46.01
2022-10-17T02:32:33.777Z,46.06
2022-10-17T02:33:33.763Z,45.85
2022-10-17T02:34:33.801Z,45.7
2022-10-17T02:35:33.778Z,45.65
2022-10-17T02:36:33.765Z,45.8
2022-10-17T02:37:33.765Z,45.76
2022-10-17T02:38:33.779Z,45.71
2022-10-17T02:39:33.779Z,45.67
2022-10-17T02:40:33.765Z,45.76
2022-10-17T02:41:33.779Z,46.08
2022-10-17T02:42:33.779Z,45.88
2022-10-17T02:43:33.780Z,45.96
2022-10-17T02:44:33.766Z,46.06
2022-10-17T02:45:33.781Z,46.15
2022-10-17T02:46:33.832Z,46.34
2022-10-17T02:47:33.780Z,46.24
2022-10-17T02:48:33.768Z,46.4
2022-10-17T02:49:33.782Z,46.53
2022-10-17T02:50:33.782Z,46.5
2022-10-17T02:51:33.782Z,46.47
2022-10-17T02:52:33.769Z,46.48
2022-10-17T02:53:33.783Z,46.38
2022-10-17T02:54:33.782Z,46.34
2022-10-17T02:55:33.770Z,46.39
2022-10-17T02:56:33.770Z,46.34
2022-10-17T02:57:33.784Z,46.42
2022-10-17T02:58:33.783Z,46.32
2022-10-17T02:59:33.771Z,46.3
2022-10-17T03:00:33.785Z,46.34
2022-10-17T03:01:33.785Z,46.51
2022-10-17T03:02:33.785Z,46.32
2022-10-17T03:03:33.772Z,46.4
2022-10-17T03:04:33.786Z,46.6
2022-10-17T03:05:33.785Z,46.29
2022-10-17T03:06:33.785Z,46.38
2022-10-17T03:07:33.773Z,46.29
2022-10-17T03:08:33.786Z,46.25
2022-10-17T03:09:33.786Z,46.17
2022-10-17T03:10:33.774Z,45.94
2022-10-17T03:11:33.774Z,46.08
2022-10-17T03:12:33.787Z,46.17
2022-10-17T03:13:33.788Z,46.07
2022-10-17T03:14:33.775Z,46.01
2022-10-17T03:15:33.775Z,46.01
2022-10-17T03:16:33.788Z,45.87
2022-10-17T03:17:33.789Z,46.03
2022-10-17T03:18:33.776Z,46.1
2022-10-17T03:19:33.790Z,46.19
2022-10-17T03:20:33.789Z,46.13
2022-10-17T03:21:33.791Z,46.46
2022-10-17T03:22:33.777Z,46.45
2022-10-17T03:23:33.791Z,46.57
2022-10-17T03:24:33.790Z,46.46
2022-10-17T03:25:33.792Z,46.46
2022-10-17T03:26:33.778Z,46.55
2022-10-17T03:27:33.792Z,46.62
2022-10-17T03:28:33.791Z,46.67
2022-10-17T03:29:33.779Z,46.56
2022-10-17T03:30:33.779Z,46.52
2022-10-17T03:31:33.793Z,46.42
2022-10-17T03:32:33.795Z,46.46
2022-10-17T03:33:33.780Z,46.43
2022-10-17T03:34:33.780Z,46.34
2022-10-17T03:35:33.794Z,46.23
2022-10-17T03:36:33.795Z,46.11
2022-10-17T03:37:33.781Z,46.19
2022-10-17T03:38:33.795Z,46.19
2022-10-17T03:39:33.796Z,45.93
2022-10-17T03:40:33.795Z,46.07
2022-10-17T03:41:33.782Z,46.09
2022-10-17T03:42:33.796Z,46.09
2022-10-17T03:43:33.796Z,46.24
2022-10-17T03:44:33.797Z,46.08
2022-10-17T03:45:33.783Z,46.18
2022-10-17T03:46:33.797Z,46.23
2022-10-17T03:47:33.797Z,46.23
2022-10-17T03:48:33.784Z,46.26
2022-10-17T03:49:33.785Z,46.26
2022-10-17T03:50:33.798Z,46.41
2022-10-17T03:51:33.799Z,46.43
2022-10-17T03:52:33.785Z,46.38
2022-10-17T03:53:33.863Z,46.4
2022-10-17T03:54:33.800Z,46.43
2022-10-17T03:55:33.800Z,46.37
2022-10-17T03:56:33.787Z,46.31
2022-10-17T03:57:33.800Z,46.38
2022-10-17T03:58:33.801Z,46.21
2022-10-17T03:59:33.800Z,46.12
2022-10-17T04:00:33.788Z,46.08
2022-10-17T04:01:33.802Z,46.14
2022-10-17T04:02:33.802Z,46.15
2022-10-17T04:03:33.802Z,46.08
2022-10-17T04:04:33.789Z,46.09
2022-10-17T04:05:33.851Z,46.26
2022-10-17T04:06:33.802Z,46.28
2022-10-17T04:07:33.789Z,46.18
2022-10-17T04:08:33.790Z,46.16
2022-10-17T04:09:33.804Z,46.21
2022-10-17T04:10:33.804Z,46.21
2022-10-17T04:11:43.048Z,46.19
2022-10-17T04:12:33.805Z,46.29
2022-10-17T04:13:33.805Z,46.31
2022-10-17T04:14:33.804Z,46.31
2022-10-17T04:15:33.792Z,46.35
2022-10-17T04:16:33.806Z,46.43
2022-10-17T04:17:33.806Z,46.49
2022-10-17T04:18:33.805Z,46.43
2022-10-17T04:19:33.794Z,46.32
2022-10-17T04:20:33.807Z,46.29
2022-10-17T04:21:33.806Z,46.32
2022-10-17T04:22:33.806Z,46.14
2022-10-17T04:23:33.794Z,46.22
2022-10-17T04:24:33.808Z,46.24
2022-10-17T04:25:33.808Z,46.21
2022-10-17T04:26:33.794Z,46.19
2022-10-17T04:27:33.795Z,46.19
2022-10-17T04:28:33.809Z,46.03
2022-10-17T04:29:33.809Z,46.06
2022-10-17T04:30:33.796Z,46.14
2022-10-17T04:31:33.810Z,46.2
2022-10-17T04:32:33.810Z,45.97
2022-10-17T04:33:33.809Z,46.12
2022-10-17T04:34:33.797Z,46.11
2022-10-17T04:35:33.811Z,46.42
2022-10-17T04:36:33.815Z,46.07
2022-10-17T04:37:33.811Z,46.14
2022-10-17T04:38:33.798Z,46.2
2022-10-17T04:39:33.812Z,46.24
2022-10-17T04:40:33.811Z,46.41
2022-10-17T04:41:33.811Z,46.22
2022-10-17T04:42:33.800Z,46.15
2022-10-17T04:43:33.813Z,46.2
2022-10-17T04:44:33.812Z,46.1
2022-10-17T04:45:33.800Z,46.13
2022-10-17T04:46:33.800Z,46.15
2022-10-17T04:47:33.814Z,46.12
2022-10-17T04:48:33.815Z,46.14
2022-10-17T04:49:33.801Z,46.27
2022-10-17T04:50:33.815Z,46.3
2022-10-17T04:51:33.815Z,46.27
2022-10-17T04:52:33.814Z,46.43
2022-10-17T04:53:33.802Z,46.39
2022-10-17T04:54:33.816Z,46.45
2022-10-17T04:55:33.816Z,46.3
2022-10-17T04:56:33.816Z,46.37
2022-10-17T04:57:33.803Z,46.37
2022-10-17T04:58:33.816Z,46.34
2022-10-17T04:59:33.817Z,46.36
2022-10-17T05:00:33.804Z,46.32
2022-10-17T05:01:33.804Z,46.29
2022-10-17T05:02:33.818Z,46.37
2022-10-17T05:06:52.335Z,46.06
2022-10-17T05:07:43.077Z,46.18
2022-10-17T05:08:43.063Z,46.16
2022-10-17T05:09:51.300Z,46.1
2022-10-17T05:10:33.820Z,45.98
2022-10-17T05:11:33.821Z,45.86
2022-10-17T05:12:33.807Z,45.96
2022-10-17T05:13:33.808Z,45.89
2022-10-17T05:14:33.821Z,46.01
2022-10-17T05:15:33.821Z,45.78
2022-10-17T05:16:33.808Z,45.8
2022-10-17T05:17:33.871Z,45.84
2022-10-17T05:18:33.822Z,45.68
2022-10-17T05:19:33.821Z,45.64
2022-10-17T05:20:33.809Z,45.68
2022-10-17T05:21:33.823Z,45.53
2022-10-17T05:22:33.823Z,45.75
2022-10-17T05:23:33.823Z,45.6
2022-10-17T05:24:33.810Z,45.57
2022-10-17T05:25:33.824Z,45.74
2022-10-17T05:26:33.824Z,45.48
2022-10-17T05:27:33.823Z,45.56
2022-10-17T05:28:33.811Z,45.56
2022-10-17T05:29:33.874Z,45.39
2022-10-17T05:30:33.825Z,45.54
2022-10-17T05:31:33.812Z,45.52
2022-10-17T05:32:33.813Z,45.51
2022-10-17T05:33:33.826Z,45.63
2022-10-17T05:34:33.826Z,45.53
2022-10-17T05:35:33.813Z,45.68
2022-10-17T05:36:33.826Z,45.88
2022-10-17T05:37:33.827Z,45.91
2022-10-17T05:38:33.826Z,45.87
2022-10-17T05:39:33.814Z,45.92
2022-10-17T05:40:33.828Z,45.92
2022-10-17T05:41:33.880Z,46.04
2022-10-17T05:42:33.827Z,46.16
2022-10-17T05:43:33.815Z,46.08
2022-10-17T05:44:33.829Z,45.98
2022-10-17T05:45:33.829Z,45.91
2022-10-17T05:46:33.829Z,45.95
2022-10-17T05:47:33.816Z,45.96
2022-10-17T05:48:33.830Z,45.7
2022-10-17T05:49:33.830Z,45.82
2022-10-17T05:50:33.817Z,45.87
2022-10-17T05:51:33.817Z,45.89
2022-10-17T05:52:33.831Z,45.76
2022-10-17T05:53:33.830Z,45.9
2022-10-17T05:54:33.818Z,45.9
2022-10-17T05:55:33.881Z,45.85
2022-10-17T05:56:33.832Z,45.69
2022-10-17T05:57:33.831Z,45.69
2022-10-17T05:58:33.819Z,45.71
2022-10-17T05:59:33.833Z,45.85
2022-10-17T06:00:33.833Z,45.53
2022-10-17T06:01:33.832Z,45.56
2022-10-17T06:02:33.820Z,45.44
2022-10-17T06:03:33.834Z,45.44
2022-10-17T06:04:33.834Z,45.47
2022-10-17T06:05:33.833Z,45.46
2022-10-17T06:06:33.821Z,45.31
2022-10-17T06:07:33.876Z,45.39
2022-10-17T06:08:33.834Z,45.21
2022-10-17T06:09:33.822Z,45.43
2022-10-17T06:10:33.822Z,45.51
2022-10-17T06:11:33.836Z,45.51
2022-10-17T06:12:33.836Z,45.55
2022-10-17T06:13:33.823Z,45.55
2022-10-17T06:14:33.837Z,45.48
2022-10-17T06:15:33.837Z,45.45
2022-10-17T06:16:33.836Z,45.57
2022-10-17T06:17:33.824Z,45.6
2022-10-17T06:18:33.837Z,45.68
2022-10-17T06:19:33.882Z,45.51
2022-10-17T06:20:33.838Z,45.54
2022-10-17T06:21:33.825Z,45.46
2022-10-17T06:22:33.839Z,45.33
2022-10-17T06:23:33.839Z,45.49
2022-10-17T06:24:33.839Z,45.36
2022-10-17T06:25:33.827Z,45.38
2022-10-17T06:26:33.840Z,45.49
2022-10-17T06:27:33.840Z,45.26
2022-10-17T06:28:33.827Z,45.36
2022-10-17T06:29:33.828Z,45.3
2022-10-17T06:30:33.841Z,45.44
2022-10-17T06:31:33.881Z,45.24
2022-10-17T06:32:33.828Z,44.98
2022-10-17T06:33:33.842Z,44.9
2022-10-17T06:34:33.842Z,44.79
2022-10-17T06:35:33.841Z,44.68
2022-10-17T06:36:33.829Z,44.84
2022-10-17T06:37:33.843Z,44.64
2022-10-17T06:38:33.842Z,44.77
2022-10-17T06:39:33.843Z,44.85
2022-10-17T06:40:33.830Z,44.78
2022-10-17T06:41:33.844Z,44.67
2022-10-17T06:42:33.843Z,44.68
2022-10-17T06:43:33.831Z,44.79
2022-10-17T06:44:33.831Z,44.71
2022-10-17T06:45:33.844Z,44.64
2022-10-17T06:46:33.844Z,44.62
2022-10-17T06:47:33.832Z,44.64
2022-10-17T06:48:33.833Z,44.61
2022-10-17T06:49:33.846Z,44.57
2022-10-17T06:50:33.847Z,44.57
2022-10-17T06:51:33.833Z,44.55
2022-10-17T06:52:33.847Z,44.53
2022-10-17T06:53:33.846Z,44.57
2022-10-17T06:54:33.846Z,44.47
2022-10-17T06:55:33.834Z,44.4
2022-10-17T06:56:33.848Z,44.27
2022-10-17T06:57:33.851Z,44.07
2022-10-17T06:58:33.847Z,44.08
2022-10-17T06:59:33.836Z,44.05
2022-10-17T07:00:33.849Z,44.11
2022-10-17T07:01:33.849Z,43.83
2022-10-17T07:02:33.848Z,43.67
2022-10-17T07:03:33.836Z,43.49
2022-10-17T07:04:33.849Z,43.08
2022-10-17T07:05:33.849Z,42.93
2022-10-17T07:06:33.837Z,42.78
2022-10-17T07:07:33.838Z,42.62
2022-10-17T07:08:33.850Z,42.71
2022-10-17T07:09:33.892Z,42.85
2022-10-17T07:10:33.838Z,42.64
2022-10-17T07:11:33.852Z,42.37
2022-10-17T07:12:33.851Z,42.16
2022-10-17T07:13:33.852Z,42.1
2022-10-17T07:14:33.839Z,41.84
2022-10-17T07:15:33.853Z,41.39
2022-10-17T07:16:33.854Z,40.65
2022-10-17T07:17:33.854Z,39.79
2022-10-17T07:18:33.841Z,39.16
2022-10-17T07:19:33.855Z,38.63
2022-10-17T07:20:33.855Z,38.08
2022-10-17T07:21:33.842Z,37.7
2022-10-17T07:22:33.842Z,37.29
2022-10-17T07:23:33.856Z,37.19
2022-10-17T07:24:33.857Z,36.79
2022-10-17T07:25:33.843Z,36.51
2022-10-17T07:26:33.844Z,36.01
2022-10-17T07:27:33.858Z,35.28
2022-10-17T07:28:43.117Z,34.7
2022-10-17T07:29:33.845Z,34.08
2022-10-17T07:30:33.859Z,33.47
2022-10-17T07:31:33.860Z,32.79
2022-10-17T07:32:33.859Z,32.07
2022-10-17T07:33:33.847Z,31.25
2022-10-17T07:34:33.861Z,30.77
2022-10-17T07:35:33.862Z,30.34
2022-10-17T07:36:33.861Z,30.1
2022-10-17T07:37:33.850Z,29.73
2022-10-17T07:38:33.863Z,29.34
2022-10-17T07:39:33.863Z,28.97
2022-10-17T07:40:33.850Z,28.69
2022-10-17T07:41:33.852Z,28.43
2022-10-17T07:42:33.864Z,28.33
2022-10-17T07:43:33.865Z,28.13
2022-10-17T07:44:33.853Z,28.03
2022-10-17T07:45:33.854Z,28.3
2022-10-17T07:46:33.866Z,29.04
2022-10-17T07:47:33.867Z,30.37
2022-10-17T07:48:33.855Z,31.75
2022-10-17T07:49:33.869Z,32.79
2022-10-17T07:50:33.868Z,34.06
2022-10-17T07:51:33.870Z,34.84
2022-10-17T07:52:33.857Z,35.69
2022-10-17T07:53:33.871Z,36.67
2022-10-17T07:54:33.898Z,37.51
2022-10-17T07:55:33.871Z,38.11
2022-10-17T07:56:33.859Z,38.79
2022-10-17T07:57:33.873Z,39.35
2022-10-17T07:58:33.872Z,39.89
2022-10-17T07:59:33.874Z,40.53
2022-10-17T08:00:33.860Z,41.12
2022-10-17T08:01:33.875Z,41.5
2022-10-17T08:02:33.874Z,42.09
2022-10-17T08:03:33.862Z,42.5
2022-10-17T08:04:33.863Z,42.76
2022-10-17T08:05:33.876Z,42.25
2022-10-17T08:06:33.940Z,41.4
2022-10-17T08:07:33.863Z,39.87
2022-10-17T08:08:33.878Z,38.15
2022-10-17T08:09:33.878Z,36.63
2022-10-17T08:10:33.878Z,35.64
2022-10-17T08:11:33.865Z,34.58
2022-10-17T08:12:33.880Z,33.62
2022-10-17T08:13:33.880Z,32.88
2022-10-17T08:14:33.881Z,32.13
2022-10-17T08:15:33.867Z,31.62
2022-10-17T08:16:33.882Z,31.22
2022-10-17T08:17:33.881Z,30.93
2022-10-17T08:18:33.895Z,30.43
2022-10-17T08:19:33.869Z,29.89
2022-10-17T08:21:33.883Z,29.45
2022-10-17T08:22:33.871Z,28.8
2022-10-17T08:23:33.872Z,28.45
2022-10-17T08:24:33.886Z,28.41
2022-10-17T08:25:33.886Z,28.09
2022-10-17T08:26:33.873Z,27.87
2022-10-17T08:27:33.888Z,27.47
2022-10-17T08:28:33.888Z,27.94
2022-10-17T08:29:33.888Z,27.48
2022-10-17T08:30:33.889Z,27.41
2022-10-17T08:31:33.890Z,27.3
2022-10-17T08:32:33.891Z,27.53
2022-10-17T08:33:33.891Z,27.46
2022-10-17T08:34:33.878Z,27.18
2022-10-17T08:35:33.891Z,27.48
2022-10-17T08:36:33.893Z,27.38
2022-10-17T08:37:33.880Z,27.37
2022-10-17T08:38:33.880Z,27.5
2022-10-17T08:39:33.895Z,27.84
2022-10-17T08:40:33.895Z,27.69
2022-10-17T08:41:33.882Z,27.57
2022-10-17T08:42:33.884Z,27.5
2022-10-17T08:43:33.897Z,27.15
2022-10-17T08:44:33.898Z,27.27
2022-10-17T08:45:33.885Z,27.12
2022-10-17T08:46:33.899Z,27.19
2022-10-17T08:47:33.899Z,27.19
2022-10-17T08:48:33.900Z,27.24
2022-10-17T08:49:33.887Z,27.35
2022-10-17T08:50:33.901Z,27.37
2022-10-17T08:51:33.902Z,27.27
2022-10-17T08:52:33.901Z,27.19
2022-10-17T08:53:33.889Z,26.98
2022-10-17T08:54:33.903Z,27.46
2022-10-17T08:55:33.904Z,27.19
2022-10-17T08:56:33.891Z,27.39
2022-10-17T08:57:33.893Z,27.47
2022-10-17T08:58:33.906Z,27.34
2022-10-17T08:59:33.907Z,27.66
2022-10-17T09:00:33.893Z,27.98
2022-10-17T09:01:33.895Z,28.06
2022-10-17T09:02:33.908Z,27.94
2022-10-17T09:03:33.908Z,27.98
2022-10-17T09:04:33.896Z,27.94
2022-10-17T09:05:33.910Z,28.12
2022-10-17T09:06:43.169Z,28.35
2022-10-17T09:07:33.910Z,29.24
2022-10-17T09:08:33.898Z,29.89
2022-10-17T09:09:33.913Z,30.19
2022-10-17T09:10:33.914Z,30.48
2022-10-17T09:11:33.913Z,30.62
2022-10-17T09:12:33.902Z,30.76
2022-10-17T09:13:33.915Z,30.84
2022-10-17T09:14:33.916Z,31.23
2022-10-17T09:15:33.926Z,31.1
2022-10-17T09:16:33.904Z,30.99
2022-10-17T09:17:33.918Z,30.88
2022-10-17T09:18:33.918Z,30.95
2022-10-17T09:19:33.905Z,30.98
2022-10-17T09:20:33.907Z,30.99
2022-10-17T09:21:33.920Z,30.55
2022-10-17T09:22:33.920Z,30.97
2022-10-17T09:23:33.907Z,30.71
2022-10-17T09:24:33.922Z,30.7
2022-10-17T09:25:33.922Z,30.94
2022-10-17T09:26:33.923Z,30.77
2022-10-17T09:27:33.924Z,31.05
2022-10-17T09:28:33.924Z,31.57
2022-10-17T09:29:33.926Z,32.21
2022-10-17T09:30:33.925Z,32.46
2022-10-17T09:31:33.913Z,32.48
2022-10-17T09:32:33.927Z,32.94
2022-10-17T09:33:33.926Z,33.34
2022-10-17T09:34:33.914Z,33.5
2022-10-17T09:35:33.916Z,33.64
2022-10-17T09:36:33.929Z,33.95
2022-10-17T09:37:33.930Z,34.11
2022-10-17T09:38:33.917Z,34.4
2022-10-17T09:39:33.932Z,34.37
2022-10-17T09:40:33.932Z,34.29
2022-10-17T09:41:33.932Z,34.17
2022-10-17T09:42:33.919Z,34.12
2022-10-17T09:43:33.933Z,34.17
2022-10-17T09:44:33.933Z,34.24
2022-10-17T09:45:33.934Z,34.72
2022-10-17T09:46:33.922Z,34.65
2022-10-17T09:47:33.935Z,34.27
2022-10-17T09:48:33.935Z,33.85
2022-10-17T09:49:33.936Z,33.94
2022-10-17T09:50:33.924Z,33.83
2022-10-17T09:51:33.938Z,33.9
2022-10-17T09:52:33.940Z,33.6
2022-10-17T09:53:33.926Z,33.28
2022-10-17T09:54:33.926Z,32.96
2022-10-17T09:55:33.941Z,33.04
2022-10-17T09:56:33.940Z,32.83
2022-10-17T09:57:33.928Z,33.25
2022-10-17T09:58:33.982Z,33.56
2022-10-17T09:59:33.943Z,33.21
2022-10-17T10:00:40.053Z,33.19
2022-10-17T10:01:33.930Z,33.03
2022-10-17T10:02:33.945Z,32.8
2022-10-17T10:03:33.945Z,32.94
2022-10-17T10:04:33.945Z,32.54
2022-10-17T10:05:33.933Z,32.5
2022-10-17T10:06:33.947Z,32.45
2022-10-17T10:07:33.949Z,31.83
2022-10-17T10:08:33.947Z,31.24
2022-10-17T10:09:33.936Z,30.91
2022-10-17T10:10:33.949Z,30.78
2022-10-17T10:11:33.950Z,31.27
2022-10-17T10:12:33.937Z,31.31
2022-10-17T10:13:33.938Z,31.77
2022-10-17T10:14:33.952Z,32.12
2022-10-17T10:15:33.953Z,32.38
2022-10-17T10:16:33.939Z,32.54
2022-10-17T10:17:33.941Z,32.75
2022-10-17T10:18:33.953Z,32.7
2022-10-17T10:19:33.955Z,32.87
2022-10-17T10:20:33.942Z,32.69
2022-10-17T10:21:33.956Z,32.45
2022-10-17T10:22:33.957Z,32.76
2022-10-17T10:23:33.957Z,33.7
2022-10-17T10:24:33.944Z,34.84
2022-10-17T10:25:33.959Z,35.6
2022-10-17T10:26:33.959Z,36.1
2022-10-17T10:27:33.960Z,37.03
2022-10-17T10:28:33.947Z,37.25
2022-10-17T10:29:33.960Z,37.16
2022-10-17T10:30:33.963Z,37.19
2022-10-17T10:31:33.949Z,36.68
2022-10-17T10:32:33.949Z,36.42
2022-10-17T10:33:33.964Z,36.67
2022-10-17T10:34:33.963Z,37.1
2022-10-17T10:35:33.951Z,36.97
2022-10-17T10:36:34.014Z,36.99
2022-10-17T10:37:33.965Z,37.01
2022-10-17T10:38:33.966Z,36.04
2022-10-17T10:39:33.953Z,35.83
2022-10-17T10:40:33.968Z,35.45
2022-10-17T10:41:33.968Z,34.95
2022-10-17T10:42:33.969Z,34.89
2022-10-17T10:43:33.957Z,35.18
2022-10-17T10:44:33.970Z,35.4
2022-10-17T10:45:33.972Z,35.06
2022-10-17T10:46:33.971Z,35.02
2022-10-17T10:47:33.959Z,35.13
2022-10-17T10:48:33.973Z,35.08
2022-10-17T10:49:33.973Z,34.99
2022-10-17T10:50:33.960Z,34.89
2022-10-17T10:51:33.961Z,34.75
2022-10-17T10:52:33.975Z,35.2
2022-10-17T10:53:33.976Z,35.15
2022-10-17T10:54:33.963Z,36.03
2022-10-17T10:55:33.963Z,36.58
2022-10-17T10:56:33.978Z,36.97
2022-10-17T10:57:33.978Z,37.03
2022-10-17T10:58:33.965Z,36.88
2022-10-17T10:59:33.978Z,36.56
2022-10-17T11:00:37.690Z,36.44
2022-10-17T11:01:33.981Z,36.14
2022-10-17T11:02:33.967Z,35.81
2022-10-17T11:03:33.982Z,34.86
2022-10-17T11:04:34.026Z,34.84
2022-10-17T11:05:33.982Z,34.12
2022-10-17T11:06:33.970Z,33.96
2022-10-17T11:07:33.984Z,33.87
2022-10-17T11:08:33.986Z,34.18
2022-10-17T11:09:33.985Z,34.08
2022-10-17T11:10:33.972Z,34.18
2022-10-17T11:11:33.987Z,34.28
2022-10-17T11:12:33.987Z,34.38
2022-10-17T11:13:33.974Z,34.54
2022-10-17T11:14:33.975Z,34.26
2022-10-17T11:15:33.989Z,34.05
2022-10-17T11:16:33.991Z,34.19
2022-10-17T11:17:33.976Z,33.95
2022-10-17T11:18:33.991Z,34.25
2022-10-17T11:19:33.991Z,34.42
2022-10-17T11:20:33.992Z,34.37
2022-10-17T11:21:33.979Z,34.95
2022-10-17T11:22:33.992Z,35.77
2022-10-17T11:23:34.037Z,35.6
2022-10-17T11:24:33.994Z,36.25
2022-10-17T11:25:33.981Z,36.66
2022-10-17T11:26:33.995Z,37.02
2022-10-17T11:27:33.997Z,36.89
2022-10-17T11:28:33.996Z,37.19
2022-10-17T11:29:33.984Z,37.25
2022-10-17T11:30:33.998Z,37.18
2022-10-17T11:31:33.998Z,37.03
2022-10-17T11:32:33.986Z,36.6
2022-10-17T11:33:33.986Z,36.34
2022-10-17T11:34:34.001Z,36.16
2022-10-17T11:35:34.025Z,35.92
2022-10-17T11:36:33.988Z,35.93
2022-10-17T11:37:34.002Z,35.72
2022-10-17T11:38:34.003Z,35.56
2022-10-17T11:39:34.002Z,35.23
2022-10-17T11:40:33.990Z,35.54
2022-10-17T11:41:34.005Z,36.04
2022-10-17T11:42:34.004Z,36.93
2022-10-17T11:43:34.005Z,37.38
2022-10-17T11:44:33.993Z,37.53
2022-10-17T11:45:34.006Z,38.09
2022-10-17T11:46:34.009Z,38.72
2022-10-17T11:47:34.008Z,39.69
2022-10-17T11:48:33.996Z,40
2022-10-17T11:49:34.009Z,40.23
2022-10-17T11:50:34.010Z,40.52
2022-10-17T11:51:33.997Z,40.76
2022-10-17T11:52:33.998Z,40.72
2022-10-17T11:53:34.012Z,40.17
2022-10-17T11:54:34.014Z,39.39
2022-10-17T11:55:34.000Z,38.17
2022-10-17T11:56:34.013Z,37.2
2022-10-17T11:57:34.014Z,36.37
2022-10-17T11:58:34.014Z,35.52
2022-10-17T11:59:34.002Z,34.83
2022-10-17T12:00:42.251Z,35.05
2022-10-17T12:01:34.043Z,35.72
2022-10-17T12:02:34.018Z,36.42
2022-10-17T12:03:34.005Z,37.23
2022-10-17T12:04:34.019Z,37.49
2022-10-17T12:05:34.018Z,37.31
2022-10-17T12:06:34.020Z,37.14
2022-10-17T12:07:34.007Z,37.39
2022-10-17T12:08:34.021Z,37.45
2022-10-17T12:09:34.023Z,37.66
2022-10-17T12:10:42.243Z,37.95
2022-10-17T12:11:34.009Z,38.18
2022-10-17T12:12:34.023Z,38.14
2022-10-17T12:13:34.025Z,38.01
2022-10-17T12:14:34.011Z,38.3
2022-10-17T12:15:34.076Z,38.29
2022-10-17T12:16:34.025Z,38.63
2022-10-17T12:17:34.026Z,38.77
2022-10-17T12:18:34.014Z,38.93
2022-10-17T12:19:34.028Z,39.39
2022-10-17T12:20:34.028Z,39.09
2022-10-17T12:21:34.029Z,39.2
2022-10-17T12:22:43.274Z,39.72
2022-10-17T12:23:34.031Z,40.36
2022-10-17T12:24:34.032Z,40.67
2022-10-17T12:25:34.032Z,40.94
2022-10-17T12:26:34.019Z,41.2
2022-10-17T12:27:34.033Z,41.65
2022-10-17T12:28:34.034Z,41.86
2022-10-17T12:29:34.021Z,42.23
2022-10-17T12:30:34.021Z,42.31
2022-10-17T12:31:34.035Z,42.38
2022-10-17T12:32:34.035Z,42.83
2022-10-17T12:33:34.023Z,42.8
2022-10-17T12:34:34.077Z,42.66
2022-10-17T12:35:34.038Z,42.88
2022-10-17T12:36:34.039Z,42.8
2022-10-17T12:37:34.025Z,42.63
2022-10-17T12:38:34.040Z,42.33
2022-10-17T12:39:34.040Z,42.26
2022-10-17T12:40:34.041Z,41.95
2022-10-17T12:41:34.029Z,41.91
2022-10-17T12:42:34.041Z,41.68
2022-10-17T12:43:34.044Z,41.61
2022-10-17T12:44:34.042Z,41.71
2022-10-17T12:45:34.030Z,42.12
2022-10-17T12:46:34.045Z,43.37
2022-10-17T12:47:34.045Z,44.02
2022-10-17T12:48:34.032Z,44.97
2022-10-17T12:49:34.034Z,45.71
2022-10-17T12:50:34.047Z,46.24
2022-10-17T12:51:34.049Z,46.65
2022-10-17T12:52:34.035Z,46.76
2022-10-17T12:53:34.049Z,47.22
2022-10-17T12:54:34.049Z,47.47
2022-10-17T12:55:34.049Z,47.97
2022-10-17T12:56:34.037Z,48.63
2022-10-17T12:57:34.051Z,49.16
2022-10-17T12:58:34.053Z,49.86
2022-10-17T12:59:34.052Z,50.3